HEAX/ALY METAR and TAF weather

Enter ICAO airport designator
Station Type Date Time Source
HEAX METAR 2019/06/24 23:00 UTC NOAA

HEAX 242300Z 33006KT CAVOK 26/23 Q1009 NOSIG


Station Type Date Time Source
HEAX Decoded METAR 2019/06/24 23:00 UTC NOAA

Alexandria / Nouzha, Egypt (HEAX) 31-12N 029-57E 7M
Jun 24, 2019 - 07:00 PM EDT / 2019.06.24 2300 UTC
Wind: from the NNW (330 degrees) at 7 MPH (6 KT):0
Visibility: greater than 7 mile(s):0
Temperature: 78 F (26 C)
Dew Point: 73 F (23 C)
Relative Humidity: 83%
Pressure (altimeter): 29.80 in. Hg (1009 hPa)
ob: HEAX 242300Z 33006KT CAVOK 26/23 Q1009 NOSIG
cycle: 23

Station Type Date Time Source
HEAX TAF 2019/06/24 18:57 UTC NOAA

TAF TAF HEAX 241700Z 2418/2524 33009KT CAVOK

Example: see airport list